Terminal Aerodrome Forecast
Issued by NWS

Home | Current Version | Previous Version | Text Only | Print | Product List | Glossary On
Versions: 1 2 3 4 5 6 7 8 9 10 11 12 13 14 15 16 17 18 19 20 21 22 23 24 25 26 27 28 29 30 31 32 33 34 35 36 37 38 39 40 41 42 43 44 45 46
000
FTUS44 KHGX 271720
TAFUTS
TAF
KUTS 271720Z 2718/2818 32012G18KT 4SM -SHRA BR BKN004 OVC025
      TEMPO 2718/2722 1SM -TSRA BR OVC007CB
     FM280100 35011G19KT 6SM -RA BR OVC009
     FM280900 35008KT 3SM -RA BR OVC009=

USA.gov is the U.S. government's official web portal to all federal, state and local government web resources and services.